createdAt,value
2023-02-19T00:02:02.477Z,101334.34
2023-02-19T00:04:28.806Z,101329.91
2023-02-19T00:06:55.143Z,101327.47
2023-02-19T00:09:21.678Z,101331.91
2023-02-19T00:11:48.496Z,101325.16
2023-02-19T00:14:18.934Z,101328.59
2023-02-19T00:16:45.874Z,101325.00
2023-02-19T00:19:14.847Z,101330.25
2023-02-19T00:21:41.201Z,101333.03
2023-02-19T00:24:08.130Z,101324.16
2023-02-19T00:26:34.853Z,101321.69
2023-02-19T00:29:02.093Z,101319.75
2023-02-19T00:31:34.290Z,101320.06
2023-02-19T00:34:03.774Z,101299.50
2023-02-19T00:36:31.706Z,101304.59
2023-02-19T00:38:58.237Z,101317.59
2023-02-19T00:41:25.307Z,101304.09
2023-02-19T00:43:57.120Z,101308.53
2023-02-19T00:46:29.677Z,101303.13
2023-02-19T00:48:56.810Z,101308.22
2023-02-19T00:51:25.551Z,101297.53
2023-02-19T00:53:51.869Z,101306.41
2023-02-19T00:56:18.810Z,101307.22
2023-02-19T00:58:45.313Z,101300.00
2023-02-19T01:01:12.229Z,101299.34
2023-02-19T01:03:39.702Z,101298.50
2023-02-19T01:06:07.822Z,101300.16
2023-02-19T01:08:34.899Z,101302.78
2023-02-19T01:11:03.117Z,101304.44
2023-02-19T01:13:30.344Z,101308.06
2023-02-19T01:16:05.113Z,101297.53
2023-02-19T01:18:32.263Z,101301.13
2023-02-19T01:20:59.177Z,101295.56
2023-02-19T01:23:25.512Z,101301.94
2023-02-19T01:25:51.869Z,101298.34
2023-02-19T01:28:18.207Z,101299.50
2023-02-19T01:30:44.517Z,101286.69
2023-02-19T01:33:10.840Z,101299.31
2023-02-19T01:35:40.469Z,101300.50
2023-02-19T01:38:09.766Z,101296.22
2023-02-19T01:40:36.099Z,101301.16
2023-02-19T01:43:03.614Z,101297.88
2023-02-19T01:45:39.039Z,101307.72
2023-02-19T01:48:17.411Z,101295.72
2023-02-19T01:51:12.343Z,101297.69
2023-02-19T01:53:44.459Z,101301.47
2023-02-19T01:56:15.808Z,101301.94
2023-02-19T01:58:42.210Z,101302.78
2023-02-19T02:01:09.353Z,101307.22
2023-02-19T02:03:38.434Z,101310.19
2023-02-19T02:06:11.227Z,101313.47
2023-02-19T02:08:56.320Z,101307.22
2023-02-19T02:11:23.083Z,101305.59
2023-02-19T02:13:50.396Z,101312.19
2023-02-19T02:16:40.681Z,101313.66
2023-02-19T02:19:35.025Z,101306.09
2023-02-19T02:22:28.592Z,101308.06
2023-02-19T02:25:00.891Z,101298.50
2023-02-19T02:28:01.788Z,101305.25
2023-02-19T02:30:38.008Z,101306.56
2023-02-19T02:33:07.133Z,101303.13
2023-02-19T02:35:41.272Z,101302.28
2023-02-19T02:38:11.547Z,101307.56
2023-02-19T02:40:42.128Z,101307.91
2023-02-19T02:43:08.961Z,101296.38
2023-02-19T02:45:35.602Z,101301.81
2023-02-19T02:48:18.222Z,101304.25
2023-02-19T02:50:53.813Z,101301.63
2023-02-19T02:53:44.646Z,101301.97
2023-02-19T02:56:14.429Z,101303.31
2023-02-19T02:58:42.193Z,101303.31
2023-02-19T03:01:38.694Z,101304.75
2023-02-19T03:04:11.900Z,101314.31
2023-02-19T03:06:39.542Z,101314.47
2023-02-19T03:09:19.721Z,101323.16
2023-02-19T03:12:09.079Z,101319.88
2023-02-19T03:15:05.125Z,101326.81
2023-02-19T03:18:04.062Z,101325.97
2023-02-19T03:20:33.305Z,101331.59
2023-02-19T03:23:00.963Z,101329.75
2023-02-19T03:25:50.002Z,101333.88
2023-02-19T03:28:41.607Z,101336.50
2023-02-19T03:31:12.369Z,101335.84
2023-02-19T03:33:41.663Z,101341.09
2023-02-19T03:36:12.648Z,101335.84
2023-02-19T03:38:52.414Z,101338.47
2023-02-19T03:41:49.695Z,101338.16
2023-02-19T03:44:21.732Z,101340.44
2023-02-19T03:46:55.995Z,101348.69
2023-02-19T03:49:44.241Z,101347.03
2023-02-19T03:52:42.845Z,101352.63
2023-02-19T03:55:17.255Z,101359.50
2023-02-19T03:57:52.525Z,101355.41
2023-02-19T04:00:42.750Z,101349.34
2023-02-19T04:03:18.311Z,101360.84
2023-02-19T04:05:49.784Z,101351.13
2023-02-19T04:08:19.347Z,101358.19
2023-02-19T04:10:47.148Z,101361.50
2023-02-19T04:13:20.435Z,101368.91
2023-02-19T04:15:48.450Z,101380.56
2023-02-19T04:18:18.591Z,101378.94
2023-02-19T04:20:47.565Z,101385.81
2023-02-19T04:23:19.155Z,101374.16
2023-02-19T04:25:48.653Z,101385.81
2023-02-19T04:28:16.526Z,101388.28
2023-02-19T04:30:43.813Z,101399.81
2023-02-19T04:33:10.362Z,101393.38
2023-02-19T04:35:36.788Z,101395.50
2023-02-19T04:38:03.208Z,101402.44
2023-02-19T04:40:29.576Z,101410.31
2023-02-19T04:42:55.882Z,101408.97
2023-02-19T04:45:22.214Z,101410.81
2023-02-19T04:47:48.555Z,101411.13
2023-02-19T04:50:15.123Z,101414.75
2023-02-19T04:52:41.477Z,101424.25
2023-02-19T04:55:08.405Z,101417.03
2023-02-19T04:57:35.592Z,101419.19
2023-02-19T05:00:02.389Z,101420.00
2023-02-19T05:02:28.704Z,101420.00
2023-02-19T05:04:55.060Z,101431.81
2023-02-19T05:07:21.375Z,101442.00
2023-02-19T05:09:47.741Z,101438.91
2023-02-19T05:12:14.079Z,101444.28
2023-02-19T05:14:40.379Z,101443.50
2023-02-19T05:17:06.693Z,101449.53
2023-02-19T05:19:33.028Z,101459.28
2023-02-19T05:21:59.430Z,101457.91
2023-02-19T05:24:27.406Z,101460.53
2023-02-19T05:26:53.807Z,101465.81
2023-02-19T05:29:20.154Z,101471.56
2023-02-19T05:31:47.186Z,101470.56
2023-02-19T05:34:13.659Z,101471.56
2023-02-19T05:36:40.020Z,101477.97
2023-02-19T05:39:07.296Z,101483.22
2023-02-19T05:41:33.733Z,101478.75
2023-02-19T05:44:00.145Z,101481.56
2023-02-19T05:46:29.570Z,101482.38
2023-02-19T05:48:56.769Z,101487.66
2023-02-19T05:51:24.911Z,101490.09
2023-02-19T05:53:51.745Z,101493.22
2023-02-19T05:56:38.779Z,101495.53
2023-02-19T05:59:23.070Z,101503.25
2023-02-19T06:01:51.129Z,101501.28
2023-02-19T06:04:19.883Z,101494.41
2023-02-19T06:06:47.736Z,101497.03
2023-02-19T06:09:14.127Z,101503.13
2023-02-19T06:11:40.503Z,101507.69
2023-02-19T06:14:07.180Z,101505.38
2023-02-19T06:16:34.337Z,101508.84
2023-02-19T06:19:04.396Z,101504.56
2023-02-19T06:21:30.863Z,101507.00
2023-02-19T06:23:57.192Z,101513.09
2023-02-19T06:26:25.330Z,101518.19
2023-02-19T06:28:53.325Z,101517.88
2023-02-19T06:31:21.400Z,101515.72
2023-02-19T06:33:47.779Z,101522.28
2023-02-19T06:36:16.904Z,101533.78
2023-02-19T06:38:43.436Z,101534.59
2023-02-19T06:41:11.097Z,101543.13
2023-02-19T06:43:37.926Z,101543.13
2023-02-19T06:46:06.317Z,101548.00
2023-02-19T06:48:33.681Z,101538.81
2023-02-19T06:51:00.182Z,101544.91
2023-02-19T06:53:28.986Z,101546.59
2023-02-19T06:55:57.266Z,101551.97
2023-02-19T06:58:23.767Z,101552.97
2023-02-19T07:00:50.311Z,101563.00
2023-02-19T07:03:16.852Z,101571.00
2023-02-19T07:05:43.828Z,101577.56
2023-02-19T07:08:10.232Z,101576.94
2023-02-19T07:10:36.578Z,101584.69
2023-02-19T07:13:03.117Z,101591.38
2023-02-19T07:15:29.763Z,101589.41
2023-02-19T07:17:56.129Z,101588.44
2023-02-19T07:20:22.469Z,101598.78
2023-02-19T07:22:48.778Z,101595.19
2023-02-19T07:25:15.086Z,101597.97
2023-02-19T07:27:41.434Z,101605.84
2023-02-19T07:30:08.380Z,101618.09
2023-02-19T07:32:34.721Z,101625.84
2023-02-19T07:35:01.087Z,101632.06
2023-02-19T07:37:27.419Z,101630.28
2023-02-19T07:39:53.762Z,101648.34
2023-02-19T07:42:20.056Z,101659.09
2023-02-19T07:44:46.423Z,101645.88
2023-02-19T07:47:12.736Z,101648.47
2023-02-19T07:49:39.043Z,101653.41
2023-02-19T07:52:05.355Z,101661.16
2023-02-19T07:54:31.722Z,101668.19
2023-02-19T07:56:58.058Z,101674.44
2023-02-19T07:59:24.380Z,101668.88
2023-02-19T08:02:09.398Z,101675.94
2023-02-19T08:04:35.730Z,101670.53
2023-02-19T08:07:02.108Z,101681.06
2023-02-19T08:09:28.431Z,101676.16
2023-02-19T08:12:13.093Z,101686.44
2023-02-19T08:14:39.474Z,101683.22
2023-02-19T08:17:05.854Z,101694.25
2023-02-19T08:19:32.232Z,101705.81
2023-02-19T08:21:58.710Z,101705.00
2023-02-19T08:24:25.021Z,101700.56
2023-02-19T08:26:51.399Z,101706.16
2023-02-19T08:29:18.006Z,101712.44
2023-02-19T08:31:44.532Z,101718.53
2023-02-19T08:34:10.934Z,101714.06
2023-02-19T08:36:38.356Z,101714.06
2023-02-19T08:39:04.685Z,101715.34
2023-02-19T08:41:31.040Z,101710.09
2023-02-19T08:43:57.408Z,101709.47
2023-02-19T08:46:23.861Z,101712.66
2023-02-19T08:48:50.188Z,101718.56
2023-02-19T08:51:16.632Z,101716.41
2023-02-19T08:53:43.020Z,101711.97
2023-02-19T08:56:13.057Z,101727.97
2023-02-19T08:58:39.611Z,101717.22
2023-02-19T09:01:11.131Z,101723.69
2023-02-19T09:03:37.793Z,101726.19
2023-02-19T09:06:05.344Z,101722.78
2023-02-19T09:08:31.695Z,101716.38
2023-02-19T09:10:59.792Z,101730.22
2023-02-19T09:13:26.155Z,101725.81
2023-02-19T09:15:52.503Z,101732.88
2023-02-19T09:18:18.910Z,101745.50
2023-02-19T09:20:45.376Z,101744.81
2023-02-19T09:23:11.678Z,101748.63
2023-02-19T09:25:38.010Z,101754.56
2023-02-19T09:28:04.501Z,101762.06
2023-02-19T09:30:30.901Z,101757.34
2023-02-19T09:32:57.219Z,101772.47
2023-02-19T09:35:23.619Z,101773.91
2023-02-19T09:37:49.918Z,101772.75
2023-02-19T09:40:21.855Z,101771.22
2023-02-19T09:42:51.284Z,101775.69
2023-02-19T09:45:23.315Z,101771.94
2023-02-19T09:47:54.046Z,101766.38
2023-02-19T09:50:27.088Z,101766.47
2023-02-19T09:52:58.330Z,101777.91
2023-02-19T09:55:36.540Z,101778.06
2023-02-19T09:58:14.440Z,101778.75
2023-02-19T10:00:40.882Z,101789.88
2023-02-19T10:03:15.091Z,101789.28
2023-02-19T10:05:41.783Z,101796.91
2023-02-19T10:08:15.445Z,101813.91
2023-02-19T10:10:44.165Z,101811.91
2023-02-19T10:13:22.772Z,101822.25
2023-02-19T10:15:57.629Z,101825.03
2023-02-19T10:18:28.253Z,101847.50
2023-02-19T10:20:56.553Z,101855.84
2023-02-19T10:23:24.617Z,101858.84
2023-02-19T10:25:57.199Z,101852.09
2023-02-19T10:28:27.934Z,101855.09
2023-02-19T10:30:56.962Z,101852.91
2023-02-19T10:33:23.927Z,101867.19
2023-02-19T10:36:10.268Z,101868.81
2023-02-19T10:38:40.300Z,101869.75
2023-02-19T10:41:17.642Z,101863.59
2023-02-19T10:43:55.540Z,101866.97
2023-02-19T10:46:25.768Z,101886.91
2023-02-19T10:48:59.203Z,101881.84
2023-02-19T10:51:39.852Z,101874.72
2023-02-19T10:54:20.106Z,101878.22
2023-02-19T10:56:46.742Z,101884.09
2023-02-19T10:59:18.929Z,101888.59
2023-02-19T11:01:58.886Z,101887.69
2023-02-19T11:04:36.461Z,101894.47
2023-02-19T11:07:16.811Z,101903.19
2023-02-19T11:09:45.818Z,101900.19
2023-02-19T11:12:27.078Z,101907.47
2023-02-19T11:14:53.990Z,101906.72
2023-02-19T11:17:26.833Z,101906.66
2023-02-19T11:19:56.661Z,101906.19
2023-02-19T11:22:32.676Z,101903.72
2023-02-19T11:25:09.619Z,101906.34
2023-02-19T11:27:53.099Z,101912.38
2023-02-19T11:30:45.002Z,101908.84
2023-02-19T11:33:17.686Z,101902.22
2023-02-19T11:35:45.311Z,101907.94
2023-02-19T11:38:14.043Z,101897.41
2023-02-19T11:40:55.640Z,101901.63
2023-02-19T11:43:46.847Z,101897.75
2023-02-19T11:46:26.481Z,101897.47
2023-02-19T11:48:58.864Z,101900.50
2023-02-19T11:51:37.576Z,101903.84
2023-02-19T11:54:18.770Z,101898.22
2023-02-19T11:56:50.448Z,101899.38
2023-02-19T11:59:39.095Z,101891.09
2023-02-19T12:02:20.012Z,101888.38
2023-02-19T12:04:58.435Z,101883.03
2023-02-19T12:07:43.729Z,101881.38
2023-02-19T12:10:37.048Z,101888.31
2023-02-19T12:13:23.515Z,101886.28
2023-02-19T12:18:42.677Z,101894.41
2023-02-19T12:21:32.603Z,101899.66
2023-02-19T12:24:33.265Z,101912.22
2023-02-19T12:27:08.747Z,101908.03
2023-02-19T12:30:05.752Z,101912.50
2023-02-19T12:32:41.033Z,101914.31
2023-02-19T12:35:16.557Z,101920.09
2023-02-19T12:38:04.863Z,101913.03
2023-02-19T12:40:44.506Z,101910.50
2023-02-19T12:43:19.520Z,101909.72
2023-02-19T12:45:49.599Z,101914.22
2023-02-19T12:48:34.192Z,101917.63
2023-02-19T12:51:14.611Z,101919.28
2023-02-19T12:54:02.345Z,101919.19
2023-02-19T12:56:42.149Z,101913.66
2023-02-19T12:59:30.750Z,101917.69
2023-02-19T13:02:05.805Z,101923.69
2023-02-19T13:04:32.179Z,101925.66
2023-02-19T13:07:09.082Z,101920.78
2023-02-19T13:09:48.188Z,101917.09
2023-02-19T13:12:29.312Z,101921.19
2023-02-19T13:15:05.587Z,101918.31
2023-02-19T13:17:38.956Z,101917.25
2023-02-19T13:20:18.411Z,101913.13
2023-02-19T13:23:39.028Z,101931.16
2023-02-19T13:26:42.321Z,101914.47
2023-02-19T13:29:29.823Z,101917.72
2023-02-19T13:32:17.615Z,101915.75
2023-02-19T13:35:21.279Z,101914.03
2023-02-19T13:37:48.492Z,101916.72
2023-02-19T13:40:39.931Z,101930.19
2023-02-19T13:43:22.918Z,101934.63
2023-02-19T13:45:58.928Z,101941.25
2023-02-19T13:48:30.089Z,101943.88
2023-02-19T13:51:21.636Z,101940.13
2023-02-19T13:53:48.128Z,101933.56
2023-02-19T13:56:29.587Z,101939.63
2023-02-19T13:58:57.153Z,101947.88
2023-02-19T14:01:55.562Z,101952.38
2023-02-19T14:04:32.512Z,101951.16
2023-02-19T14:07:04.995Z,101955.53
2023-02-19T14:09:34.249Z,101963.38
2023-02-19T14:12:10.256Z,101961.63
2023-02-19T14:14:40.089Z,101971.88
2023-02-19T14:17:09.386Z,101974.03
2023-02-19T14:19:41.912Z,101971.34
2023-02-19T14:22:45.666Z,101974.88
2023-02-19T14:25:27.390Z,101979.78
2023-02-19T14:28:00.797Z,101987.16
2023-02-19T14:30:27.525Z,101987.91
2023-02-19T14:33:02.796Z,101993.94
2023-02-19T14:35:40.354Z,101985.47
2023-02-19T14:38:14.244Z,101982.97
2023-02-19T14:40:42.030Z,101991.19
2023-02-19T14:43:13.860Z,101992.59
2023-02-19T14:45:48.456Z,101991.13
2023-02-19T14:48:22.809Z,101990.91
2023-02-19T14:50:54.153Z,101990.78
2023-02-19T14:53:23.295Z,101994.88
2023-02-19T14:55:51.356Z,101995.69
2023-02-19T14:58:24.018Z,102001.84
2023-02-19T15:00:50.460Z,102000.50
2023-02-19T15:03:24.652Z,102008.06
2023-02-19T15:06:05.837Z,101999.94
2023-02-19T15:08:39.625Z,101989.28
2023-02-19T15:11:11.270Z,101984.03
2023-02-19T15:13:38.608Z,101971.97
2023-02-19T15:16:05.522Z,101977.38
2023-02-19T15:18:36.124Z,101976.56
2023-02-19T15:21:05.566Z,101964.38
2023-02-19T15:23:35.702Z,101958.50
2023-02-19T15:26:02.368Z,101947.88
2023-02-19T15:28:33.592Z,101942.59
2023-02-19T15:30:59.933Z,101949.28
2023-02-19T15:33:27.834Z,101942.81
2023-02-19T15:36:00.711Z,101936.44
2023-02-19T15:38:28.376Z,101942.81
2023-02-19T15:40:57.638Z,101934.59
2023-02-19T15:43:44.790Z,101931.16
2023-02-19T15:46:20.187Z,101931.63
2023-02-19T15:48:58.486Z,101927.16
2023-02-19T15:51:32.824Z,101930.25
2023-02-19T15:54:07.725Z,101937.97
2023-02-19T15:56:37.693Z,101942.09
2023-02-19T15:59:17.793Z,101945.44
2023-02-19T16:01:44.578Z,101943.22
2023-02-19T16:04:14.730Z,101941.41
2023-02-19T16:06:56.025Z,101951.53
2023-02-19T16:09:35.654Z,101960.41
2023-02-19T16:12:04.248Z,101962.91
2023-02-19T16:14:31.737Z,101975.94
2023-02-19T16:17:06.424Z,101972.19
2023-02-19T16:19:43.435Z,101973.31
2023-02-19T16:22:17.281Z,101975.94
2023-02-19T16:24:50.491Z,101979.38
2023-02-19T16:27:36.351Z,101982.59
2023-02-19T16:30:17.772Z,101994.22
2023-02-19T16:32:46.680Z,101991.16
2023-02-19T16:35:36.661Z,101990.63
2023-02-19T16:38:03.177Z,102001.44
2023-02-19T16:40:50.562Z,102004.38
2023-02-19T16:43:31.102Z,102010.84
2023-02-19T16:45:59.478Z,102016.44
2023-02-19T16:48:26.025Z,102021.41
2023-02-19T16:50:52.501Z,102024.47
2023-02-19T16:53:25.125Z,102035.25
2023-02-19T16:55:52.307Z,102032.25
2023-02-19T16:58:18.992Z,102045.50
2023-02-19T17:00:45.365Z,102054.09
2023-02-19T17:03:15.748Z,102054.38
2023-02-19T17:05:42.667Z,102066.25
2023-02-19T17:08:21.113Z,102069.56
2023-02-19T17:10:47.430Z,102072.63
2023-02-19T17:13:13.778Z,102079.13
2023-02-19T17:15:40.067Z,102090.03
2023-02-19T17:18:06.412Z,102094.19
2023-02-19T17:20:35.395Z,102095.84
2023-02-19T17:23:01.759Z,102089.34
2023-02-19T17:25:28.207Z,102101.38
2023-02-19T17:27:54.562Z,102104.16
2023-02-19T17:30:27.818Z,102104.56
2023-02-19T17:32:54.224Z,102105.25
2023-02-19T17:35:20.670Z,102104.28
2023-02-19T17:37:47.158Z,102101.41
2023-02-19T17:40:32.765Z,102103.31
2023-02-19T17:43:00.385Z,102108.00
2023-02-19T17:45:26.775Z,102113.97
2023-02-19T17:47:53.183Z,102103.31
2023-02-19T17:50:25.859Z,102108.41
2023-02-19T17:52:52.502Z,102106.47
2023-02-19T17:55:19.093Z,102118.13
2023-02-19T17:57:47.026Z,102129.72
2023-02-19T18:00:15.914Z,102120.47
2023-02-19T18:02:42.470Z,102126.50
2023-02-19T18:05:09.013Z,102130.91
2023-02-19T18:07:35.887Z,102124.41
2023-02-19T18:10:03.130Z,102125.09
2023-02-19T18:12:29.456Z,102133.78
2023-02-19T18:14:56.602Z,102136.13
2023-02-19T18:17:24.633Z,102140.97
2023-02-19T18:19:51.931Z,102140.56
2023-02-19T18:22:18.603Z,102147.06
2023-02-19T18:24:50.002Z,102132.41
2023-02-19T18:27:16.873Z,102130.56
2023-02-19T18:29:43.164Z,102129.63
2023-02-19T18:32:09.607Z,102126.31
2023-02-19T18:34:36.018Z,102137.50
2023-02-19T18:37:02.413Z,102133.34
2023-02-19T18:39:28.763Z,102149.38
2023-02-19T18:41:55.211Z,102153.50
2023-02-19T18:44:23.129Z,102158.03
2023-02-19T18:46:50.131Z,102156.38
2023-02-19T18:49:17.165Z,102160.53
2023-02-19T18:51:44.016Z,102164.38
2023-02-19T18:54:10.660Z,102155.38
2023-02-19T18:56:44.279Z,102155.97
2023-02-19T18:59:11.488Z,102164.78
2023-02-19T19:01:38.155Z,102168.19
2023-02-19T19:04:04.796Z,102167.63
2023-02-19T19:06:31.646Z,102176.34
2023-02-19T19:08:58.460Z,102172.22
2023-02-19T19:11:25.434Z,102168.88
2023-02-19T19:13:52.763Z,102182.94
2023-02-19T19:16:24.121Z,102178.28
2023-02-19T19:18:50.776Z,102194.28
2023-02-19T19:21:17.608Z,102181.59
2023-02-19T19:23:44.023Z,102179.06
2023-02-19T19:26:11.186Z,102191.94
2023-02-19T19:28:44.041Z,102199.53
2023-02-19T19:31:12.575Z,102203.00
2023-02-19T19:33:39.213Z,102199.94
2023-02-19T19:36:06.392Z,102196.34
2023-02-19T19:38:32.830Z,102188.75
2023-02-19T19:40:59.626Z,102188.47
2023-02-19T19:43:27.782Z,102186.69
2023-02-19T19:45:54.566Z,102189.19
2023-02-19T19:48:21.270Z,102189.72
2023-02-19T19:50:47.676Z,102189.56
2023-02-19T19:53:14.076Z,102186.53
2023-02-19T19:55:40.404Z,102185.84
2023-02-19T19:58:06.770Z,102184.47
2023-02-19T20:00:33.144Z,102186.94
2023-02-19T20:02:59.649Z,102193.28
2023-02-19T20:05:26.088Z,102188.88
2023-02-19T20:07:53.383Z,102194.13
2023-02-19T20:10:19.929Z,102198.53
2023-02-19T20:12:47.267Z,102211.38
2023-02-19T20:15:13.877Z,102205.59
2023-02-19T20:17:40.262Z,102203.06
2023-02-19T20:20:07.245Z,102205.28
2023-02-19T20:22:33.678Z,102209.88
2023-02-19T20:25:00.132Z,102206.88
2023-02-19T20:27:26.436Z,102207.69
2023-02-19T20:29:52.805Z,102214.44
2023-02-19T20:32:19.156Z,102206.81
2023-02-19T20:34:46.066Z,102205.16
2023-02-19T20:37:12.441Z,102204.72
2023-02-19T20:39:39.058Z,102200.94
2023-02-19T20:42:06.198Z,102209.50
2023-02-19T20:44:33.369Z,102212.78
2023-02-19T20:47:00.239Z,102225.19
2023-02-19T20:49:29.611Z,102226.81
2023-02-19T20:51:58.835Z,102227.78
2023-02-19T20:54:27.837Z,102226.69
2023-02-19T20:56:56.122Z,102227.53
2023-02-19T20:59:24.865Z,102237.28
2023-02-19T21:01:51.246Z,102237.34
2023-02-19T21:04:18.851Z,102242.06
2023-02-19T21:06:45.865Z,102242.56
2023-02-19T21:09:12.317Z,102240.66
2023-02-19T21:11:39.138Z,102244.84
2023-02-19T21:14:05.508Z,102231.16
2023-02-19T21:16:32.696Z,102234.47
2023-02-19T21:19:00.135Z,102238.22
2023-02-19T21:21:27.441Z,102230.00
2023-02-19T21:23:55.387Z,102235.97
2023-02-19T21:26:22.167Z,102229.91
2023-02-19T21:28:51.423Z,102232.06
2023-02-19T21:31:18.140Z,102245.63
2023-02-19T21:33:44.520Z,102237.91
2023-02-19T21:36:11.228Z,102237.56
2023-02-19T21:38:37.791Z,102245.97
2023-02-19T21:41:04.488Z,102252.56
2023-02-19T21:43:31.090Z,102255.91
2023-02-19T21:45:57.618Z,102255.31
2023-02-19T21:48:24.023Z,102257.94
2023-02-19T21:50:50.386Z,102256.63
2023-02-19T21:53:16.837Z,102251.50
2023-02-19T21:55:56.620Z,102255.06
2023-02-19T21:58:24.974Z,102235.31
2023-02-19T22:00:51.356Z,102230.81
2023-02-19T22:03:17.777Z,102233.78
2023-02-19T22:05:44.083Z,102231.78
2023-02-19T22:08:10.624Z,102234.63
2023-02-19T22:10:39.201Z,102237.47
2023-02-19T22:13:05.500Z,102241.28
2023-02-19T22:15:31.829Z,102235.34
2023-02-19T22:17:58.392Z,102239.84
2023-02-19T22:20:24.713Z,102250.44
2023-02-19T22:22:51.011Z,102249.84
2023-02-19T22:25:17.407Z,102251.66
2023-02-19T22:27:43.754Z,102245.78
2023-02-19T22:30:10.770Z,102239.16
2023-02-19T22:32:37.270Z,102250.22
2023-02-19T22:35:03.713Z,102250.22
2023-02-19T22:37:30.029Z,102241.75
2023-02-19T22:39:56.355Z,102239.75
2023-02-19T22:42:24.085Z,102240.56
2023-02-19T22:44:50.503Z,102239.97
2023-02-19T22:47:19.098Z,102244.28
2023-02-19T22:49:45.489Z,102257.44
2023-02-19T22:52:12.562Z,102254.25
2023-02-19T22:54:39.548Z,102239.97
2023-02-19T22:57:06.193Z,102247.59
2023-02-19T22:59:32.582Z,102245.06
2023-02-19T23:01:58.912Z,102251.22
2023-02-19T23:04:25.918Z,102257.84
2023-02-19T23:06:52.549Z,102252.59
2023-02-19T23:09:25.230Z,102241.97
2023-02-19T23:11:51.982Z,102240.75
2023-02-19T23:14:21.190Z,102232.53
2023-02-19T23:16:47.595Z,102243.66
2023-02-19T23:19:15.565Z,102249.09
2023-02-19T23:21:43.937Z,102237.97
2023-02-19T23:24:11.826Z,102235.59
2023-02-19T23:26:46.544Z,102243.75
2023-02-19T23:29:18.316Z,102242.91
2023-02-19T23:31:45.116Z,102242.09
2023-02-19T23:34:11.691Z,102243.84
2023-02-19T23:36:46.757Z,102230.28
2023-02-19T23:39:15.735Z,102230.88
2023-02-19T23:41:53.885Z,102219.91
2023-02-19T23:44:21.511Z,102219.75
2023-02-19T23:46:48.420Z,102224.97
2023-02-19T23:49:15.084Z,102228.44
2023-02-19T23:51:41.596Z,102218.59
2023-02-19T23:54:08.750Z,102228.47
2023-02-19T23:56:35.513Z,102233.16
2023-02-19T23:59:02.144Z,102223.38
